Portada
METAR-TAF:

METAR-TAF

Aeroports :

Pontoise, França

latitud: 49-05-48N, longitud: 002-02-27E, altitud: 99 m

Observació

L'informe es va fer fa 26 minuts, a les 19:30 UTC
Vent 3 kt del Est
Temperatura 18°C
Humitat 42%
Pressió 1021 hPa
Visibilitat 10 km o més
sense núvols per sota de 1500 mi sense presència de cumulonimbus.

METAR: LFPT 291930Z AUTO 08003KT CAVOK 18/05 Q1021

Hora: 21:56 (19:56 UTC)


TAF: manca

Observacions i pronòstics meteorològics de més de 4000 aeroports (METAR i TAF).

Les estacions disponibles són els punts grocs i vermells al mapa.

Posi el ratolí al punt desitjat per veure el nom de l'estació.

Feu clic per veure les observacions i els pronòstics meteorològics.

Per canviar el mapa: feu clic els botons verds amb una creu de color negre per apropar; al botó verd amb un guió per allunyar la imatge; o en les fletxes verdes per a mapes adjacents.


METAR-TAF: